Time;durP1;ratioP1;P1;durP2;ratioP2;P2;SDS_P1;SDS_P2;PMS_P1;PMS_P2;Temp;Humidity;BMP_temperature;BMP_pressure;BME280_temperature;BME280_humidity;BME280_pressure;Samples;Min_cycle;Max_cycle;Signal;HPM_P1;HPM_P2
2021/08/10 00:01:43;;;;;;;6.63;3.23;;;16.20;90.10;;;;;;5057493;28;21003;-78
2021/08/10 00:04:09;;;;;;;6.10;3.20;;;16.20;90.10;;;;;;5052689;28;20540;-78
2021/08/10 00:06:36;;;;;;;6.03;3.00;;;16.20;90.10;;;;;;5037602;28;20878;-79
2021/08/10 00:09:04;;;;;;;2.90;2.60;;;16.20;90.10;;;;;;5038158;28;20488;-78
2021/08/10 00:11:31;;;;;;;5.33;3.00;;;16.20;90.10;;;;;;5037663;28;20434;-78
2021/08/10 00:13:58;;;;;;;4.67;2.77;;;16.20;89.80;;;;;;5055689;28;20456;-79
2021/08/10 00:16:26;;;;;;;3.30;2.90;;;16.20;90.30;;;;;;5056673;28;20526;-78
2021/08/10 00:18:55;;;;;;;3.87;2.90;;;16.10;90.30;;;;;;5039074;28;20456;-78
2021/08/10 00:21:22;;;;;;;4.57;2.70;;;16.10;90.10;;;;;;5037496;28;20456;-78
2021/08/10 00:23:49;;;;;;;3.73;2.90;;;16.10;90.10;;;;;;5037676;28;20488;-78
2021/08/10 00:26:15;;;;;;;6.27;2.43;;;16.10;90.10;;;;;;5037416;28;20433;-78
2021/08/10 00:28:42;;;;;;;3.17;2.87;;;16.00;90.00;;;;;;5050518;28;20525;-78
2021/08/10 00:31:09;;;;;;;4.07;2.73;;;16.00;90.40;;;;;;5056419;28;20472;-79
2021/08/10 00:33:36;;;;;;;3.93;3.37;;;16.00;90.40;;;;;;5057771;28;20823;-78
2021/08/10 00:36:05;;;;;;;3.20;2.93;;;16.00;90.30;;;;;;5049736;28;20426;-80
2021/08/10 00:38:32;;;;;;;5.60;3.17;;;16.00;90.70;;;;;;5036713;28;20440;-78
2021/08/10 00:41:00;;;;;;;3.63;3.10;;;16.00;90.80;;;;;;5046203;28;20454;-78
2021/08/10 00:43:33;;;;;;;4.07;3.27;;;16.00;90.70;;;;;;5056591;28;20482;-80
2021/08/10 00:46:01;;;;;;;3.23;2.93;;;16.00;90.70;;;;;;5057605;28;20500;-77
2021/08/10 00:48:28;;;;;;;3.40;2.70;;;15.90;90.90;;;;;;5056020;28;20529;-79
2021/08/10 00:50:55;;;;;;;3.37;2.77;;;15.90;91.10;;;;;;5050580;28;20532;-79
2021/08/10 00:53:25;;;;;;;5.20;3.40;;;15.90;91.10;;;;;;5037440;28;20534;-78
2021/08/10 00:55:52;;;;;;;4.43;3.20;;;15.80;91.60;;;;;;5044646;28;21008;-81
2021/08/10 00:58:21;;;;;;;4.20;2.80;;;15.80;92.10;;;;;;5079890;28;20452;-79
2021/08/10 01:00:48;;;;;;;5.40;3.23;;;15.80;92.00;;;;;;5078826;28;20456;-79
2021/08/10 01:03:14;;;;;;;3.83;2.77;;;15.90;92.10;;;;;;5066105;28;20912;-78
2021/08/10 01:05:45;;;;;;;4.50;2.67;;;15.80;92.20;;;;;;5022069;28;21008;-77
2021/08/10 01:08:21;;;;;;;3.60;2.93;;;15.80;92.00;;;;;;5049699;28;20461;-78
2021/08/10 01:10:58;;;;;;;5.30;3.10;;;15.80;91.60;;;;;;5069552;28;20502;-78
2021/08/10 01:13:33;;;;;;;10.73;2.90;;;15.80;91.30;;;;;;5053241;28;20486;-78
2021/08/10 01:16:11;;;;;;;4.03;2.73;;;15.70;91.20;;;;;;5043038;28;20397;-77
2021/08/10 01:18:43;;;;;;;4.38;2.50;;;15.70;91.50;;;;;;5051448;28;20469;-78
2021/08/10 01:21:19;;;;;;;7.60;3.20;;;15.60;91.70;;;;;;5062023;28;20231;-78
2021/08/10 01:23:49;;;;;;;3.60;2.78;;;15.60;92.50;;;;;;5040147;28;20509;-78
2021/08/10 01:26:28;;;;;;;3.60;2.63;;;15.60;92.40;;;;;;5035799;28;20642;-77
2021/08/10 01:29:04;;;;;;;4.30;2.90;;;15.60;92.60;;;;;;5035831;28;20323;-78
2021/08/10 01:31:37;;;;;;;3.63;3.00;;;15.60;92.40;;;;;;5036107;28;20214;-77
2021/08/10 01:34:13;;;;;;;3.97;2.70;;;15.60;92.60;;;;;;5040672;28;20445;-78
2021/08/10 01:36:42;;;;;;;3.70;2.53;;;15.60;92.80;;;;;;5039781;28;20280;-79
2021/08/10 01:39:10;;;;;;;4.33;2.93;;;15.60;92.60;;;;;;5060772;28;20465;-78
2021/08/10 01:41:39;;;;;;;7.55;2.90;;;15.60;92.30;;;;;;5066840;28;20499;-79
2021/08/10 01:44:07;;;;;;;4.37;2.40;;;15.60;92.10;;;;;;5066353;28;20212;-78
2021/08/10 01:46:35;;;;;;;5.00;2.50;;;15.60;91.70;;;;;;5063615;28;20451;-77
2021/08/10 01:49:03;;;;;;;2.80;2.30;;;15.60;91.40;;;;;;5063294;28;20477;-79
2021/08/10 01:51:31;;;;;;;2.60;2.40;;;15.60;91.30;;;;;;5055317;28;20531;-80
2021/08/10 01:54:01;;;;;;;2.83;2.20;;;15.60;91.00;;;;;;5047843;28;20487;-78
2021/08/10 01:56:29;;;;;;;3.00;2.70;;;15.60;90.50;;;;;;5057072;28;20461;-79
2021/08/10 01:58:58;;;;;;;4.53;2.83;;;15.60;90.50;;;;;;5048567;28;20449;-77
2021/08/10 02:01:27;;;;;;;3.67;2.73;;;15.60;90.00;;;;;;5043461;28;20433;-77
2021/08/10 02:03:56;;;;;;;3.37;2.07;;;15.60;90.00;;;;;;5041611;28;20433;-78
2021/08/10 02:06:24;;;;;;;3.30;2.70;;;15.60;89.80;;;;;;5043170;28;20507;-77
2021/08/10 02:08:54;;;;;;;3.67;2.27;;;15.60;89.80;;;;;;5042222;28;20465;-78
2021/08/10 02:11:23;;;;;;;4.10;2.13;;;15.70;89.90;;;;;;5055074;28;20540;-78
2021/08/10 02:13:51;;;;;;;3.77;2.50;;;15.70;88.20;;;;;;5062187;28;20997;-78
2021/08/10 02:16:19;;;;;;;7.53;2.40;;;15.60;88.00;;;;;;5045003;28;20826;-78
2021/08/10 02:18:48;;;;;;;3.20;2.40;;;15.50;88.40;;;;;;5041639;28;20437;-78
2021/08/10 02:21:25;;;;;;;5.40;2.43;;;15.50;89.50;;;;;;5044622;28;20458;-79
2021/08/10 02:23:57;;;;;;;4.73;2.47;;;15.50;89.70;;;;;;5055404;28;20552;-78
2021/08/10 02:26:24;;;;;;;6.90;2.57;;;15.50;89.80;;;;;;5055804;28;20474;-78
2021/08/10 02:28:52;;;;;;;7.05;2.60;;;15.40;89.70;;;;;;5063681;28;20473;-78
2021/08/10 02:31:20;;;;;;;3.85;2.17;;;15.40;89.70;;;;;;5073495;28;20209;-79
2021/08/10 02:33:50;;;;;;;2.85;2.50;;;15.30;90.00;;;;;;5062535;28;20647;-78
2021/08/10 02:36:20;;;;;;;4.93;2.60;;;15.30;90.10;;;;;;5061266;28;20208;-79
2021/08/10 02:38:49;;;;;;;2.85;2.55;;;15.30;90.70;;;;;;5066740;28;20546;-79
2021/08/10 02:41:17;;;;;;;5.13;2.43;;;15.30;91.10;;;;;;5063059;28;20212;-79
2021/08/10 02:43:44;;;;;;;7.00;2.70;;;15.30;91.30;;;;;;5051679;28;20552;-79
2021/08/10 02:46:11;;;;;;;3.30;2.90;;;15.20;91.30;;;;;;5051060;28;20227;-79
2021/08/10 02:48:38;;;;;;;4.45;2.42;;;15.10;91.60;;;;;;5052123;28;20294;-79
2021/08/10 02:51:05;;;;;;;5.55;2.85;;;15.10;91.60;;;;;;5033645;28;20212;-79
2021/08/10 02:53:34;;;;;;;4.13;2.60;;;15.10;91.90;;;;;;5033645;28;20227;-79
2021/08/10 02:56:08;;;;;;;2.78;2.58;;;15.10;91.60;;;;;;5013608;28;20240;-79
2021/08/10 02:58:42;;;;;;;3.70;2.58;;;15.00;91.50;;;;;;5031831;28;20195;-79
2021/08/10 03:01:13;;;;;;;3.92;2.53;;;15.00;91.40;;;;;;5035349;28;20286;-78
2021/08/10 03:03:40;;;;;;;2.28;2.00;;;15.00;91.40;;;;;;5050658;28;20257;-79
2021/08/10 03:06:09;;;;;;;3.28;2.95;;;14.90;91.60;;;;;;5055303;28;20230;-78
2021/08/10 03:08:43;;;;;;;5.47;2.90;;;14.90;91.90;;;;;;5053784;28;20234;-78
2021/08/10 03:11:12;;;;;;;3.97;2.60;;;14.90;92.40;;;;;;5054818;28;20297;-78
2021/08/10 03:13:41;;;;;;;5.32;3.17;;;14.90;92.80;;;;;;5038282;28;20278;-78
2021/08/10 03:16:09;;;;;;;3.53;2.42;;;15.00;92.80;;;;;;5033963;28;20744;-78
2021/08/10 03:18:38;;;;;;;4.35;2.92;;;14.90;92.70;;;;;;5033404;28;20200;-78
2021/08/10 03:21:06;;;;;;;3.50;3.00;;;14.90;92.60;;;;;;5033002;28;20310;-78
2021/08/10 03:23:35;;;;;;;9.10;3.30;;;14.90;92.60;;;;;;5047723;28;20223;-78
2021/08/10 03:26:05;;;;;;;5.07;2.72;;;14.80;92.80;;;;;;5052402;28;20481;-78
2021/08/10 03:28:38;;;;;;;3.03;2.80;;;14.80;93.30;;;;;;5033248;28;20722;-78
2021/08/10 03:31:06;;;;;;;3.55;2.95;;;14.80;93.30;;;;;;5044893;28;20603;-78
2021/08/10 03:33:34;;;;;;;3.47;2.30;;;14.80;93.70;;;;;;5053176;28;20227;-78
2021/08/10 03:36:02;;;;;;;3.10;2.53;;;14.90;93.70;;;;;;5034746;28;20208;-78
2021/08/10 03:38:31;;;;;;;2.75;2.53;;;14.90;94.00;;;;;;5033364;28;20548;-78
2021/08/10 03:40:58;;;;;;;4.97;2.72;;;15.00;93.70;;;;;;5053321;28;20210;-78
2021/08/10 03:43:28;;;;;;;2.67;2.47;;;15.20;93.40;;;;;;5052870;28;20234;-79
2021/08/10 03:45:55;;;;;;;2.90;2.33;;;15.30;92.90;;;;;;5057547;28;20489;-79
2021/08/10 03:48:23;;;;;;;9.50;3.03;;;15.30;92.00;;;;;;5058852;28;20428;-78
2021/08/10 03:50:51;;;;;;;2.63;2.43;;;15.50;91.30;;;;;;5034248;28;20463;-78
2021/08/10 03:53:20;;;;;;;4.33;2.90;;;15.50;90.60;;;;;;5048183;28;20438;-77
2021/08/10 03:55:50;;;;;;;3.23;2.50;;;15.50;89.70;;;;;;5057952;28;20430;-78
2021/08/10 03:58:21;;;;;;;2.53;2.33;;;15.50;89.70;;;;;;5056393;28;20462;-78
2021/08/10 04:00:51;;;;;;;4.67;2.67;;;15.50;89.70;;;;;;5056194;28;20417;-78
2021/08/10 04:03:19;;;;;;;4.63;2.60;;;15.50;89.60;;;;;;5055558;28;21049;-78
2021/08/10 04:05:49;;;;;;;3.47;2.75;;;15.40;88.30;;;;;;5046843;28;20486;-79
2021/08/10 04:08:17;;;;;;;3.77;2.70;;;15.30;89.10;;;;;;5036578;28;20207;-78
2021/08/10 04:10:46;;;;;;;3.20;2.90;;;15.30;89.50;;;;;;5056204;28;20515;-78
2021/08/10 04:13:13;;;;;;;5.83;2.67;;;15.10;89.30;;;;;;5053241;28;21067;-77
2021/08/10 04:15:43;;;;;;;3.20;2.77;;;15.00;90.60;;;;;;5034300;28;20458;-78
2021/08/10 04:18:13;;;;;;;2.90;2.50;;;15.00;90.80;;;;;;5034958;28;20460;-77
2021/08/10 04:20:41;;;;;;;2.55;2.20;;;15.00;91.20;;;;;;5041105;28;20541;-78
2021/08/10 04:23:08;;;;;;;2.83;2.58;;;15.10;91.80;;;;;;5037450;28;20229;-77
2021/08/10 04:25:35;;;;;;;2.70;2.40;;;15.10;91.10;;;;;;5043120;28;20244;-79
2021/08/10 04:28:02;;;;;;;2.85;2.45;;;15.20;90.90;;;;;;5045158;28;20792;-78
2021/08/10 04:30:29;;;;;;;3.05;2.70;;;15.20;90.50;;;;;;5058554;28;20250;-78
2021/08/10 04:32:56;;;;;;;4.37;2.30;;;15.30;90.40;;;;;;5058513;28;20320;-77
2021/08/10 04:35:25;;;;;;;2.85;2.42;;;15.40;89.90;;;;;;5056519;28;20886;-77
2021/08/10 04:37:53;;;;;;;2.20;2.10;;;15.50;88.80;;;;;;5055952;28;20218;-77
2021/08/10 04:40:20;;;;;;;3.08;2.25;;;15.60;87.30;;;;;;5040771;28;20667;-77
2021/08/10 04:42:47;;;;;;;2.30;2.10;;;15.70;86.20;;;;;;5044561;28;20581;-77
2021/08/10 04:45:14;;;;;;;4.47;2.77;;;15.70;85.60;;;;;;5055175;28;20310;-77
2021/08/10 04:47:41;;;;;;;2.70;2.40;;;15.80;84.70;;;;;;5038988;28;20460;-78
2021/08/10 04:50:08;;;;;;;4.10;2.90;;;15.80;84.00;;;;;;5035756;28;20920;-78
2021/08/10 04:52:36;;;;;;;2.70;2.50;;;15.90;82.90;;;;;;5037444;28;20545;-78
2021/08/10 04:55:04;;;;;;;6.07;2.50;;;15.90;81.60;;;;;;5036670;28;20455;-78
2021/08/10 04:57:31;;;;;;;3.70;3.37;;;16.00;82.10;;;;;;5038585;28;20286;-78
2021/08/10 04:59:58;;;;;;;3.13;2.53;;;16.10;81.80;;;;;;5038310;28;20480;-78
2021/08/10 05:02:25;;;;;;;4.83;2.83;;;16.20;80.10;;;;;;5055228;28;20455;-79
2021/08/10 05:04:52;;;;;;;3.10;2.45;;;16.30;79.50;;;;;;5057685;28;20418;-78
2021/08/10 05:07:19;;;;;;;3.73;2.53;;;16.40;78.30;;;;;;5052831;28;20444;-78
2021/08/10 05:09:47;;;;;;;3.97;2.90;;;16.50;77.60;;;;;;5040102;28;20435;-80
2021/08/10 05:12:14;;;;;;;3.83;2.90;;;16.60;76.90;;;;;;5040920;28;20469;-79
2021/08/10 05:14:41;;;;;;;2.60;2.40;;;16.60;76.10;;;;;;5042933;28;20522;-78
2021/08/10 05:17:08;;;;;;;5.90;3.27;;;16.60;76.60;;;;;;5055870;28;20451;-76
2021/08/10 05:19:35;;;;;;;4.93;2.30;;;16.50;76.90;;;;;;5044198;28;20564;-77
2021/08/10 05:22:02;;;;;;;8.30;3.80;;;16.60;76.90;;;;;;5036086;28;20511;-77
2021/08/10 05:24:29;;;;;;;10.37;3.53;;;16.70;76.10;;;;;;5045646;28;20452;-78
2021/08/10 05:26:57;;;;;;;3.13;2.80;;;16.80;75.00;;;;;;5049008;28;20481;-78
2021/08/10 05:29:24;;;;;;;5.90;2.80;;;16.90;73.90;;;;;;5041739;28;20491;-78
2021/08/10 05:31:51;;;;;;;4.80;2.27;;;17.00;73.20;;;;;;5053083;28;20508;-78
2021/08/10 05:34:18;;;;;;;3.87;2.63;;;17.10;72.80;;;;;;5058076;28;20493;-77
2021/08/10 05:36:44;;;;;;;7.03;3.07;;;17.20;72.40;;;;;;5051071;28;20455;-78
2021/08/10 05:39:11;;;;;;;5.20;2.20;;;17.30;70.90;;;;;;5039347;28;20444;-77
2021/08/10 05:41:38;;;;;;;4.50;2.70;;;17.50;70.50;;;;;;5040486;28;20492;-79
2021/08/10 05:44:07;;;;;;;3.77;2.57;;;17.80;69.10;;;;;;5042132;28;20475;-77
2021/08/10 05:46:33;;;;;;;3.13;2.40;;;18.00;66.00;;;;;;5044594;28;20484;-77
2021/08/10 05:49:00;;;;;;;5.00;2.90;;;18.20;65.50;;;;;;5061918;28;20490;-77
2021/08/10 05:51:27;;;;;;;7.17;3.10;;;18.30;63.90;;;;;;5060962;28;20470;-78
2021/08/10 05:53:54;;;;;;;4.40;2.67;;;18.30;63.10;;;;;;5060142;28;20487;-78
2021/08/10 05:56:21;;;;;;;4.27;2.80;;;18.30;62.50;;;;;;5059276;28;20443;-77
2021/08/10 05:58:48;;;;;;;3.57;2.70;;;18.40;62.40;;;;;;5039403;28;20473;-77
2021/08/10 06:01:17;;;;;;;2.97;2.70;;;18.50;61.40;;;;;;5054944;28;21028;-77
2021/08/10 06:03:44;;;;;;;7.90;3.00;;;18.70;61.50;;;;;;5054254;28;20472;-77
2021/08/10 06:06:11;;;;;;;6.07;2.77;;;18.70;60.10;;;;;;5058032;28;20515;-77
2021/08/10 06:08:38;;;;;;;6.43;2.93;;;18.80;60.60;;;;;;5045929;28;21025;-78
2021/08/10 06:11:05;;;;;;;3.70;2.90;;;19.00;60.20;;;;;;5043584;28;20803;-79
2021/08/10 06:13:32;;;;;;;2.77;2.57;;;19.10;59.40;;;;;;5040238;28;20554;-78
2021/08/10 06:15:59;;;;;;;3.30;2.37;;;19.10;58.90;;;;;;5039307;28;20499;-79
2021/08/10 06:18:27;;;;;;;3.80;2.30;;;19.30;58.50;;;;;;5046695;28;20462;-80
2021/08/10 06:20:54;;;;;;;2.97;2.60;;;19.40;58.00;;;;;;5045543;28;20438;-78
2021/08/10 06:23:21;;;;;;;3.80;2.57;;;19.50;58.10;;;;;;5037256;28;20478;-78
2021/08/10 06:25:48;;;;;;;3.30;2.63;;;19.50;58.10;;;;;;5036087;28;20482;-78
2021/08/10 06:28:15;;;;;;;3.60;2.50;;;19.50;58.10;;;;;;5037566;28;20458;-77
2021/08/10 06:30:42;;;;;;;3.20;2.90;;;19.50;58.10;;;;;;5035142;28;20544;-76
2021/08/10 06:33:08;;;;;;;3.30;2.60;;;19.70;58.30;;;;;;5042038;28;20499;-77
2021/08/10 06:35:37;;;;;;;3.50;2.77;;;19.90;57.70;;;;;;5054974;28;20473;-77
2021/08/10 06:38:04;;;;;;;2.37;2.17;;;20.30;55.70;;;;;;5054382;28;20568;-76
2021/08/10 06:40:30;;;;;;;4.23;2.90;;;20.80;53.10;;;;;;5052860;28;20464;-77
2021/08/10 06:42:57;;;;;;;3.70;2.37;;;20.70;52.60;;;;;;5051910;28;20547;-77
2021/08/10 06:45:24;;;;;;;5.40;3.07;;;20.80;52.40;;;;;;5055367;28;20437;-78
2021/08/10 06:47:52;;;;;;;3.80;3.30;;;20.90;51.70;;;;;;5051840;28;20444;-78
2021/08/10 06:50:19;;;;;;;3.57;2.33;;;20.90;51.60;;;;;;5052656;28;20965;-77
2021/08/10 06:52:54;;;;;;;2.57;2.37;;;20.90;52.10;;;;;;5052566;28;20432;-78
2021/08/10 06:55:21;;;;;;;4.50;2.80;;;20.80;51.90;;;;;;5035743;28;20497;-78
2021/08/10 06:57:48;;;;;;;4.30;2.67;;;20.60;53.30;;;;;;5032989;28;20466;-77
2021/08/10 07:00:15;;;;;;;3.37;2.40;;;20.70;52.40;;;;;;5035138;28;20482;-77
2021/08/10 07:02:42;;;;;;;6.40;2.50;;;20.70;52.30;;;;;;5053566;28;20563;-77
2021/08/10 07:05:10;;;;;;;4.93;2.63;;;20.60;52.80;;;;;;5062005;28;20464;-77
2021/08/10 07:07:37;;;;;;;3.57;2.20;;;20.70;52.00;;;;;;5061466;28;20993;-77
2021/08/10 07:10:06;;;;;;;3.30;2.40;;;20.60;51.90;;;;;;5054462;28;20438;-78
2021/08/10 07:12:33;;;;;;;2.33;2.20;;;20.60;52.00;;;;;;5042380;28;20569;-78
2021/08/10 07:15:00;;;;;;;5.67;2.40;;;20.60;52.20;;;;;;5032835;28;21117;-78
2021/08/10 07:17:27;;;;;;;5.57;2.40;;;20.70;51.60;;;;;;5035318;28;20474;-79
2021/08/10 07:19:54;;;;;;;3.57;2.50;;;20.80;51.80;;;;;;5036544;28;20539;-79
2021/08/10 07:22:21;;;;;;;2.47;2.20;;;20.80;51.50;;;;;;5037578;28;20479;-77
2021/08/10 07:28:43;;;;;;;3.80;2.07;;;21.40;50.30;;;;;;4987159;28;20447;-78
2021/08/10 07:34:06;;;;;;;4.27;2.30;;;21.60;50.40;;;;;;4974532;28;20979;-78
2021/08/10 07:36:33;;;;;;;4.50;2.50;;;21.60;50.40;;;;;;4977292;28;20439;-79
2021/08/10 07:39:00;;;;;;;2.77;2.30;;;21.70;50.40;;;;;;4971706;28;20528;-77
2021/08/10 07:41:27;;;;;;;5.90;2.60;;;21.80;50.20;;;;;;4973084;28;20483;-78
2021/08/10 07:43:55;;;;;;;4.83;2.83;;;22.10;48.90;;;;;;4973165;28;20541;-78
2021/08/10 07:46:22;;;;;;;2.70;2.40;;;22.10;48.50;;;;;;4971996;28;20938;-77
2021/08/10 07:48:50;;;;;;;3.60;2.57;;;22.10;47.90;;;;;;4972305;28;20531;-79
2021/08/10 07:51:17;;;;;;;3.77;2.43;;;21.90;48.20;;;;;;4994863;28;20429;-77
2021/08/10 07:53:44;;;;;;;2.20;1.87;;;21.70;48.60;;;;;;4989536;28;20515;-77
2021/08/10 07:56:13;;;;;;;6.67;2.13;;;21.70;48.90;;;;;;4977211;28;20504;-78
2021/08/10 07:58:40;;;;;;;3.97;2.30;;;21.70;48.40;;;;;;4976439;28;20470;-77
2021/08/10 08:01:09;;;;;;;4.10;2.27;;;21.80;48.20;;;;;;4976767;28;20492;-78
2021/08/10 08:03:36;;;;;;;4.63;2.30;;;22.10;47.20;;;;;;4970142;28;20468;-78
2021/08/10 08:06:03;;;;;;;5.80;2.30;;;22.20;45.90;;;;;;5032909;28;20484;-79
2021/08/10 08:08:30;;;;;;;8.20;2.57;;;22.20;45.90;;;;;;5053489;28;20450;-78
2021/08/10 08:11:00;;;;;;;5.43;1.80;;;22.40;44.50;;;;;;5196990;22;22331;-76
2021/08/10 08:13:27;;;;;;;4.67;2.40;;;22.50;43.90;;;;;;5087149;28;20471;-77
2021/08/10 08:15:55;;;;;;;2.90;2.23;;;22.80;43.80;;;;;;5084841;28;20475;-77
2021/08/10 08:18:24;;;;;;;3.33;2.20;;;22.90;42.00;;;;;;5081113;28;20531;-78
2021/08/10 08:20:52;;;;;;;2.80;2.07;;;22.90;42.50;;;;;;5096412;28;20478;-78
2021/08/10 08:23:25;;;;;;;2.17;1.97;;;23.00;42.50;;;;;;5072698;28;20583;-76
2021/08/10 08:28:27;;;;;;;2.10;1.90;;;23.20;41.80;;;;;;5041281;28;20481;-80
2021/08/10 08:30:54;;;;;;;5.90;2.30;;;23.40;42.00;;;;;;5043330;28;20490;-82
2021/08/10 08:33:20;;;;;;;7.30;2.10;;;23.30;41.90;;;;;;5045323;28;20469;-82
2021/08/10 08:35:49;;;;;;;6.27;2.27;;;23.30;42.70;;;;;;5045790;28;20477;-82
2021/08/10 08:38:16;;;;;;;2.60;1.73;;;23.30;41.90;;;;;;5046745;28;20487;-81
2021/08/10 08:40:46;;;;;;;4.27;2.17;;;23.40;42.00;;;;;;5052918;28;20454;-81
2021/08/10 08:43:13;;;;;;;3.10;2.20;;;23.30;41.90;;;;;;5046413;28;20468;-82
2021/08/10 08:45:42;;;;;;;3.53;2.30;;;23.30;41.90;;;;;;5053914;28;20438;-83
2021/08/10 08:48:12;;;;;;;2.67;2.10;;;23.30;41.90;;;;;;5045557;28;20460;-81
2021/08/10 08:50:40;;;;;;;3.90;2.33;;;23.40;42.00;;;;;;5043026;28;20429;-81
2021/08/10 08:53:11;;;;;;;4.50;2.23;;;23.30;40.40;;;;;;5040721;28;20489;-80
2021/08/10 08:55:39;;;;;;;7.00;2.53;;;23.30;40.20;;;;;;5041444;28;20451;-79
2021/08/10 08:58:05;;;;;;;2.50;2.30;;;23.20;41.20;;;;;;5043509;28;20527;-81
2021/08/10 09:00:32;;;;;;;4.83;1.90;;;23.10;41.70;;;;;;5042376;28;20547;-83
2021/08/10 09:02:59;;;;;;;7.70;2.50;;;23.10;41.40;;;;;;5045309;28;20455;-80
2021/08/10 09:05:26;;;;;;;6.93;2.00;;;23.30;41.30;;;;;;5045942;28;20609;-83
2021/08/10 09:07:55;;;;;;;4.23;2.57;;;23.50;39.60;;;;;;5041349;28;20493;-83
2021/08/10 09:10:29;;;;;;;3.00;1.90;;;23.60;38.60;;;;;;5039485;28;20475;-82
2021/08/10 09:12:57;;;;;;;4.00;2.10;;;23.60;38.40;;;;;;5041152;28;20462;-83
2021/08/10 09:15:32;;;;;;;2.60;1.87;;;23.40;38.50;;;;;;5039895;28;20445;-83
2021/08/10 09:18:10;;;;;;;10.10;2.30;;;23.20;39.90;;;;;;5040613;28;20511;-83
2021/08/10 09:20:37;;;;;;;2.67;2.30;;;23.20;40.50;;;;;;5038709;28;20453;-83
2021/08/10 09:23:04;;;;;;;4.50;2.10;;;23.30;41.00;;;;;;5033545;28;20501;-84
2021/08/10 09:25:34;;;;;;;6.87;2.10;;;23.40;40.40;;;;;;5029718;28;20505;-82
2021/08/10 09:28:09;;;;;;;2.90;1.90;;;23.50;40.50;;;;;;5019946;28;20586;-82
2021/08/10 09:30:36;;;;;;;3.33;2.20;;;23.60;40.50;;;;;;5036021;28;20479;-82
2021/08/10 09:33:07;;;;;;;4.73;2.27;;;23.50;39.30;;;;;;5039287;28;20467;-83
2021/08/10 09:35:36;;;;;;;3.23;2.10;;;23.60;40.10;;;;;;5024375;28;20439;-83
2021/08/10 09:38:08;;;;;;;2.53;2.33;;;23.50;39.80;;;;;;5018624;28;20503;-83
2021/08/10 09:40:41;;;;;;;4.80;2.47;;;23.80;39.80;;;;;;5020733;28;20483;-83
2021/08/10 09:43:28;;;;;;;10.20;9.20;;;23.80;40.30;;;;;;5018975;28;20459;-82
2021/08/10 09:46:07;;;;;;;9.73;5.20;;;24.10;39.80;;;;;;5046923;28;20526;-83
2021/08/10 09:48:35;;;;;;;4.20;3.50;;;24.60;38.50;;;;;;5029775;28;21021;-84
2021/08/10 09:51:10;;;;;;;3.93;2.50;;;25.00;37.10;;;;;;5044459;28;20471;-84
2021/08/10 09:53:37;;;;;;;4.43;2.20;;;25.10;36.60;;;;;;5056317;28;20422;-82
2021/08/10 09:56:06;;;;;;;2.20;2.00;;;25.00;37.40;;;;;;5054298;28;20455;-82
2021/08/10 09:58:56;;;;;;;6.60;2.90;;;25.00;36.30;;;;;;5057234;28;20411;-83
2021/08/10 10:01:34;;;;;;;4.80;2.50;;;25.10;37.30;;;;;;5058605;28;20440;-83
2021/08/10 10:04:12;;;;;;;3.53;2.10;;;25.20;36.90;;;;;;5058598;28;20450;-83
2021/08/10 10:06:40;;;;;;;2.90;2.03;;;25.50;36.00;;;;;;5057027;28;20470;-83
2021/08/10 10:09:07;;;;;;;2.60;1.87;;;25.30;36.50;;;;;;5049552;28;20445;-83
2021/08/10 10:11:38;;;;;;;3.93;1.90;;;25.20;35.60;;;;;;5051593;28;20450;-84
2021/08/10 10:14:06;;;;;;;2.70;1.70;;;25.00;36.50;;;;;;5056072;28;20463;-82
2021/08/10 10:16:34;;;;;;;2.00;1.63;;;25.00;36.20;;;;;;5052740;28;20475;-81
2021/08/10 10:19:05;;;;;;;6.33;2.50;;;25.10;36.70;;;;;;5057237;28;20446;-82
2021/08/10 10:21:33;;;;;;;2.60;2.00;;;25.30;36.70;;;;;;5057066;28;20440;-81
2021/08/10 10:24:03;;;;;;;5.23;2.20;;;25.40;36.10;;;;;;5057804;28;20477;-81
2021/08/10 10:26:32;;;;;;;3.27;1.93;;;25.40;36.30;;;;;;5044652;28;20481;-81
2021/08/10 10:29:00;;;;;;;3.80;1.70;;;25.50;35.90;;;;;;5045452;28;20451;-82
2021/08/10 10:34:14;;;;;;;3.37;1.70;;;25.80;34.50;;;;;;5022557;28;20503;-82
2021/08/10 10:36:48;;;;;;;5.60;2.27;;;25.80;33.70;;;;;;5040111;28;20470;-82
2021/08/10 10:39:23;;;;;;;2.33;1.97;;;25.90;33.80;;;;;;5056376;28;20498;-80
2021/08/10 10:41:54;;;;;;;2.30;2.13;;;26.00;33.80;;;;;;5055369;28;20491;-81
2021/08/10 10:47:37;;;;;;;2.53;2.03;;;26.00;33.80;;;;;;5134070;27;20673;-80
2021/08/10 10:50:17;;;;;;;3.90;1.93;;;26.40;33.80;;;;;;5115076;28;20855;-80
2021/08/10 10:53:07;;;;;;;3.27;2.13;;;26.30;34.00;;;;;;5114267;28;20431;-82
2021/08/10 10:55:44;;;;;;;5.33;1.73;;;26.70;33.30;;;;;;5091638;28;20406;-82
2021/08/10 10:58:33;;;;;;;3.67;2.20;;;26.80;32.70;;;;;;5104455;28;20473;-81
2021/08/10 11:01:18;;;;;;;2.90;2.10;;;26.70;32.70;;;;;;5151202;22;20456;-80
2021/08/10 11:04:11;;;;;;;3.13;2.20;;;26.70;32.90;;;;;;5073984;28;20434;-80
2021/08/10 11:06:45;;;;;;;6.60;3.00;;;26.80;32.00;;;;;;5065581;28;20489;-81
2021/08/10 11:22:27;;;;;;;2.60;2.37;;;26.80;32.20;;;;;;5078352;28;20503;-78
2021/08/10 11:24:57;;;;;;;2.87;2.50;;;26.70;33.00;;;;;;5074799;28;20547;-79
2021/08/10 11:27:44;;;;;;;2.40;2.20;;;26.80;31.60;;;;;;5081681;28;20563;-79
2021/08/10 11:30:32;;;;;;;3.70;2.10;;;27.00;31.50;;;;;;5076282;28;20460;-80
2021/08/10 11:32:59;;;;;;;3.60;1.90;;;26.90;31.30;;;;;;5099538;22;20939;-81
2021/08/10 11:35:32;;;;;;;3.00;2.07;;;26.80;31.60;;;;;;5099612;28;20961;-83
2021/08/10 11:38:13;;;;;;;2.20;2.00;;;26.70;32.60;;;;;;5103173;28;20444;-82
2021/08/10 11:40:55;;;;;;;2.87;2.07;;;26.70;32.00;;;;;;5101273;28;20455;-81
2021/08/10 11:43:24;;;;;;;2.60;2.10;;;26.60;31.20;;;;;;5106849;28;20482;-80
2021/08/10 11:45:51;;;;;;;4.40;2.40;;;26.50;28.90;;;;;;5100519;28;20458;-81
2021/08/10 11:48:22;;;;;;;2.87;2.10;;;26.90;28.80;;;;;;5094407;28;20528;-81
2021/08/10 11:50:49;;;;;;;5.77;2.30;;;27.00;29.70;;;;;;5092878;28;20823;-80
2021/08/10 11:53:31;;;;;;;3.33;1.90;;;27.00;30.10;;;;;;5093935;28;20558;-80
2021/08/10 11:55:58;;;;;;;2.80;1.80;;;27.20;29.50;;;;;;5091255;28;20430;-79
2021/08/10 11:58:43;;;;;;;5.80;2.40;;;27.00;30.40;;;;;;5083754;28;20463;-80
2021/08/10 12:01:10;;;;;;;1.87;1.77;;;27.20;30.00;;;;;;5080096;28;20894;-80
2021/08/10 12:03:37;;;;;;;3.00;2.10;;;27.30;30.20;;;;;;5084152;28;20466;-79
2021/08/10 12:06:04;;;;;;;3.13;2.50;;;27.20;28.90;;;;;;5082289;28;20483;-80
2021/08/10 12:08:33;;;;;;;3.53;1.70;;;27.20;29.60;;;;;;5085690;28;20427;-79
2021/08/10 12:11:00;;;;;;;5.50;2.20;;;27.00;29.50;;;;;;5085484;28;20423;-81
2021/08/10 12:13:29;;;;;;;4.80;1.90;;;27.20;29.60;;;;;;5089832;28;20472;-81
2021/08/10 12:15:56;;;;;;;6.37;1.87;;;27.30;29.50;;;;;;5088282;28;20484;-81
2021/08/10 12:18:25;;;;;;;2.60;1.83;;;27.50;29.40;;;;;;5081052;28;20896;-82
2021/08/10 12:20:59;;;;;;;11.73;2.10;;;27.40;29.70;;;;;;5079063;28;20527;-81
2021/08/10 12:23:27;;;;;;;6.43;1.87;;;27.30;29.70;;;;;;5092383;28;20455;-81
2021/08/10 12:26:07;;;;;;;4.10;2.00;;;27.30;29.50;;;;;;5086745;28;20457;-81
2021/08/10 12:28:34;;;;;;;3.03;2.10;;;27.30;28.60;;;;;;5076993;28;20914;-80
2021/08/10 12:31:02;;;;;;;7.23;2.07;;;27.00;29.10;;;;;;5072954;28;20551;-79
2021/08/10 12:33:29;;;;;;;2.00;1.80;;;27.00;29.70;;;;;;5070288;28;20521;-79
2021/08/10 12:36:01;;;;;;;2.53;1.87;;;27.00;29.50;;;;;;5068005;28;20444;-80
2021/08/10 12:38:29;;;;;;;4.47;1.87;;;26.90;29.30;;;;;;5089829;28;20757;-80
2021/08/10 12:40:58;;;;;;;2.63;2.00;;;27.10;29.50;;;;;;5082198;28;20743;-79
2021/08/10 12:43:26;;;;;;;2.30;2.10;;;27.10;29.30;;;;;;5081070;28;20549;-80
2021/08/10 12:45:54;;;;;;;3.37;2.00;;;27.20;29.00;;;;;;5075565;28;20463;-79
2021/08/10 12:48:28;;;;;;;3.67;2.00;;;27.40;29.20;;;;;;5075496;28;20473;-78
2021/08/10 12:50:57;;;;;;;3.93;1.87;;;27.30;29.10;;;;;;5065240;28;20436;-79
2021/08/10 12:53:29;;;;;;;2.43;1.90;;;27.40;28.90;;;;;;5073613;28;20521;-78
2021/08/10 12:56:00;;;;;;;5.93;2.10;;;27.50;27.70;;;;;;5073224;28;20531;-79
2021/08/10 12:58:27;;;;;;;2.37;1.97;;;27.50;28.00;;;;;;5074550;28;20531;-78
2021/08/10 13:01:06;;;;;;;5.93;2.27;;;27.80;27.70;;;;;;5064930;28;20532;-78
2021/08/10 13:03:34;;;;;;;2.33;1.90;;;27.70;27.80;;;;;;5066446;28;20555;-79
2021/08/10 13:06:01;;;;;;;6.77;2.67;;;27.30;28.20;;;;;;5078746;28;20494;-77
2021/08/10 13:08:29;;;;;;;2.30;2.10;;;27.20;28.10;;;;;;5078083;28;20431;-80
2021/08/10 13:10:58;;;;;;;6.63;2.10;;;27.10;28.00;;;;;;5076801;28;20480;-80
2021/08/10 13:13:30;;;;;;;6.40;2.50;;;26.80;28.20;;;;;;5072548;28;21049;-79
2021/08/10 13:15:59;;;;;;;2.93;2.30;;;26.90;28.00;;;;;;5082922;28;20986;-77
2021/08/10 13:18:28;;;;;;;3.70;2.00;;;26.80;28.80;;;;;;5075504;28;20507;-78
2021/08/10 13:20:57;;;;;;;3.90;1.73;;;26.90;28.50;;;;;;5062138;28;20514;-77
2021/08/10 13:23:26;;;;;;;5.83;2.43;;;26.70;28.50;;;;;;5073367;28;20472;-79
2021/08/10 13:26:06;;;;;;;2.50;1.93;;;26.60;28.80;;;;;;5071217;28;20458;-75